Time,TemperatureF,DewpointF,PressureIn,WindDirection,WindDirectionDegrees,WindSpeedMPH,WindSpeedGustMPH,Humidity,HourlyPrecipIn,Conditions,Clouds,dailyrainin,SoftwareType,DateUTC
2013-03-03 00:01:00,57.0,47.0,30.07,NW,319,0.0,2.0,68,0.00,,,0.00,,2013-03-03 08:01:00,
2013-03-03 00:11:00,57.0,47.0,30.07,NW,319,0.0,2.0,68,0.00,,,0.00,,2013-03-03 08:11:00,
2013-03-03 00:21:00,57.0,47.0,30.08,NW,319,1.0,2.0,69,0.00,,,0.00,,2013-03-03 08:21:00,
2013-03-03 00:31:00,57.0,47.0,30.08,NW,319,0.0,1.0,69,0.00,,,0.00,,2013-03-03 08:31:00,
2013-03-03 00:41:00,57.0,47.0,30.08,NW,319,0.0,1.0,69,0.00,,,0.00,,2013-03-03 08:41:00,
2013-03-03 00:53:00,56.0,46.0,30.07,NW,319,0.0,0.0,70,0.00,,,0.00,,2013-03-03 08:53:00,
2013-03-03 01:01:00,56.0,47.0,30.07,NW,319,0.0,1.0,71,0.00,,,0.00,,2013-03-03 09:01:00,
2013-03-03 01:11:00,56.0,47.0,30.07,NW,319,0.0,1.0,71,0.00,,,0.00,,2013-03-03 09:11:00,
2013-03-03 01:21:00,56.0,47.0,30.07,NW,319,0.0,0.0,71,0.00,,,0.00,,2013-03-03 09:21:00,
2013-03-03 01:31:00,56.0,47.0,30.07,NW,319,1.0,2.0,72,0.00,,,0.00,,2013-03-03 09:31:00,
2013-03-03 01:41:00,56.0,47.0,30.07,NW,319,1.0,2.0,72,0.00,,,0.00,,2013-03-03 09:41:00,
2013-03-03 01:52:00,56.0,47.0,30.07,NW,317,0.0,2.0,72,0.00,,,0.00,,2013-03-03 09:52:00,
2013-03-03 02:01:00,56.0,47.0,30.07,NW,317,0.0,1.0,72,0.00,,,0.00,,2013-03-03 10:01:00,
2013-03-03 02:11:00,56.0,47.0,30.07,NW,317,0.0,1.0,72,0.00,,,0.00,,2013-03-03 10:11:00,
2013-03-03 02:21:00,55.0,47.0,30.06,NNW,337,0.0,0.0,73,0.00,,,0.00,,2013-03-03 10:21:00,
2013-03-03 02:31:00,55.0,47.0,30.06,NNW,337,0.0,1.0,73,0.00,,,0.00,,2013-03-03 10:31:00,
2013-03-03 02:41:00,55.0,47.0,30.06,NNW,337,0.0,1.0,73,0.00,,,0.00,,2013-03-03 10:41:00,
2013-03-03 02:52:00,55.0,47.0,30.06,NNW,337,0.0,1.0,74,0.00,,,0.00,,2013-03-03 10:52:00,
2013-03-03 03:01:00,55.0,47.0,30.05,NNW,337,0.0,0.0,74,0.00,,,0.00,,2013-03-03 11:01:00,
2013-03-03 03:11:00,55.0,47.0,30.05,NNW,337,0.0,0.0,74,0.00,,,0.00,,2013-03-03 11:11:00,
2013-03-03 03:21:00,55.0,47.0,30.05,NNW,337,0.0,0.0,75,0.00,,,0.00,,2013-03-03 11:21:00,
2013-03-03 03:31:00,55.0,47.0,30.04,NNW,337,0.0,1.0,75,0.00,,,0.00,,2013-03-03 11:31:00,
2013-03-03 03:41:00,55.0,47.0,30.04,NNW,337,0.0,1.0,75,0.00,,,0.00,,2013-03-03 11:41:00,
2013-03-03 03:52:00,55.0,47.0,30.04,NNW,337,0.0,1.0,75,0.00,,,0.00,,2013-03-03 11:52:00,
2013-03-03 04:01:00,55.0,47.0,30.04,NNW,337,0.0,1.0,75,0.00,,,0.00,,2013-03-03 12:01:00,
2013-03-03 13:32:00,66.0,45.0,30.03,WNW,296,7.0,16.0,46,0.00,,,0.00,,2013-03-03 21:32:00,
2013-03-03 13:42:00,66.0,45.0,30.03,WNW,296,7.0,16.0,46,0.00,,,0.00,,2013-03-03 21:42:00,
2013-03-03 13:52:00,67.0,46.0,30.03,West,269,8.0,14.0,46,0.00,,,0.00,,2013-03-03 21:52:00,
2013-03-03 14:01:00,66.0,45.0,30.02,West,268,6.0,13.0,47,0.00,,,0.00,,2013-03-03 22:01:00,
2013-03-03 14:11:00,66.0,45.0,30.02,West,268,6.0,13.0,47,0.00,,,0.00,,2013-03-03 22:11:00,
2013-03-03 14:21:00,67.0,46.0,30.02,WSW,254,7.0,14.0,46,0.00,,,0.00,,2013-03-03 22:21:00,
2013-03-03 14:31:00,66.0,44.0,30.02,WNW,298,9.0,14.0,45,0.00,,,0.00,,2013-03-03 22:31:00,
2013-03-03 14:41:00,66.0,44.0,30.02,WNW,298,9.0,14.0,45,0.00,,,0.00,,2013-03-03 22:41:00,
2013-03-03 14:52:00,65.0,44.0,30.02,WNW,296,8.0,13.0,46,0.00,,,0.00,,2013-03-03 22:52:00,
2013-03-03 15:01:00,66.0,45.0,30.02,West,263,5.0,11.0,46,0.00,,,0.00,,2013-03-03 23:01:00,
2013-03-03 15:11:00,66.0,45.0,30.02,West,263,5.0,11.0,46,0.00,,,0.00,,2013-03-03 23:11:00,
2013-03-03 15:21:00,66.0,45.0,30.01,WNW,291,4.0,12.0,47,0.00,,,0.00,,2013-03-03 23:21:00,
2013-03-03 15:31:00,66.0,45.0,30.01,West,266,5.0,9.0,46,0.00,,,0.00,,2013-03-03 23:31:00,
2013-03-03 15:41:00,66.0,45.0,30.01,West,266,5.0,9.0,46,0.00,,,0.00,,2013-03-03 23:41:00,
2013-03-03 15:52:00,65.0,44.0,30.01,SW,217,5.0,9.0,47,0.00,,,0.00,,2013-03-03 23:52:00,
2013-03-03 16:01:00,65.0,44.0,30.01,WNW,288,5.0,9.0,47,0.00,,,0.00,,2013-03-04 00:01:00,
2013-03-03 16:11:00,65.0,44.0,30.01,WNW,288,5.0,9.0,47,0.00,,,0.00,,2013-03-04 00:11:00,
2013-03-03 16:21:00,65.0,44.0,30.00,WSW,250,4.0,9.0,47,0.00,,,0.00,,2013-03-04 00:21:00,
2013-03-03 16:32:00,65.0,44.0,30.00,WNW,291,5.0,10.0,47,0.00,,,0.00,,2013-03-04 00:32:00,
2013-03-03 16:41:00,65.0,44.0,30.00,WNW,291,5.0,10.0,47,0.00,,,0.00,,2013-03-04 00:41:00,
2013-03-03 16:52:00,65.0,45.0,30.00,West,275,6.0,10.0,49,0.00,,,0.00,,2013-03-04 00:52:00,
2013-03-03 17:01:00,63.0,45.0,30.00,WNW,299,7.0,11.0,52,0.00,,,0.00,,2013-03-04 01:01:00,
2013-03-03 17:11:00,63.0,45.0,30.00,WNW,299,7.0,11.0,52,0.00,,,0.00,,2013-03-04 01:11:00,
2013-03-03 17:21:00,61.0,47.0,30.01,WNW,299,7.0,12.0,61,0.00,,,0.00,,2013-03-04 01:21:00,
2013-03-03 17:31:00,58.0,46.0,30.01,WNW,303,6.0,12.0,65,0.00,,,0.00,,2013-03-04 01:31:00,
2013-03-03 17:42:00,58.0,46.0,30.01,WNW,303,6.0,12.0,65,0.00,,,0.00,,2013-03-04 01:42:00,
2013-03-03 17:52:00,57.0,47.0,30.01,NW,321,4.0,10.0,68,0.00,,,0.00,,2013-03-04 01:52:00,
2013-03-03 18:01:00,55.0,45.0,30.02,West,274,5.0,10.0,70,0.00,,,0.00,,2013-03-04 02:01:00,
2013-03-03 18:11:00,55.0,45.0,30.02,West,274,5.0,10.0,70,0.00,,,0.00,,2013-03-04 02:11:00,
2013-03-03 18:22:00,54.0,46.0,30.02,West,267,5.0,11.0,73,0.00,,,0.00,,2013-03-04 02:22:00,
2013-03-03 18:31:00,53.0,45.0,30.03,WNW,300,4.0,9.0,75,0.00,,,0.00,,2013-03-04 02:31:00,
2013-03-03 18:41:00,53.0,45.0,30.03,WNW,300,4.0,9.0,75,0.00,,,0.00,,2013-03-04 02:41:00,
2013-03-03 18:52:00,52.0,45.0,30.03,WSW,247,3.0,9.0,77,0.00,,,0.00,,2013-03-04 02:52:00,
2013-03-03 19:01:00,51.0,45.0,30.04,West,267,3.0,10.0,79,0.00,,,0.00,,2013-03-04 03:01:00,
2013-03-03 19:11:00,51.0,45.0,30.04,West,267,3.0,10.0,79,0.00,,,0.00,,2013-03-04 03:11:00,
2013-03-03 19:21:00,51.0,45.0,30.04,West,264,5.0,9.0,80,0.00,,,0.00,,2013-03-04 03:21:00,
2013-03-03 19:31:00,50.0,44.0,30.04,WSW,247,3.0,9.0,81,0.00,,,0.00,,2013-03-04 03:31:00,
2013-03-03 19:41:00,50.0,44.0,30.04,West,267,3.0,7.0,81,0.00,,,0.00,,2013-03-04 03:41:00,
2013-03-03 19:52:00,50.0,44.0,30.04,West,267,3.0,7.0,81,0.00,,,0.00,,2013-03-04 03:52:00,
2013-03-03 20:01:00,49.0,44.0,30.05,WSW,249,2.0,6.0,82,0.00,,,0.00,,2013-03-04 04:01:00,
2013-03-03 20:11:00,49.0,44.0,30.05,WSW,249,2.0,6.0,82,0.00,,,0.00,,2013-03-04 04:11:00,
2013-03-03 20:21:00,49.0,44.0,30.05,WSW,244,1.0,3.0,82,0.00,,,0.00,,2013-03-04 04:21:00,
2013-03-03 20:31:00,49.0,44.0,30.05,SSW,213,2.0,5.0,83,0.00,,,0.00,,2013-03-04 04:31:00,
2013-03-03 20:41:00,49.0,44.0,30.05,SSW,213,2.0,5.0,83,0.00,,,0.00,,2013-03-04 04:41:00,
2013-03-03 20:52:00,49.0,44.0,30.06,South,179,2.0,5.0,84,0.00,,,0.00,,2013-03-04 04:52:00,
2013-03-03 21:01:00,49.0,45.0,30.06,SW,223,1.0,4.0,85,0.00,,,0.00,,2013-03-04 05:01:00,
2013-03-03 21:11:00,49.0,45.0,30.06,SW,223,1.0,4.0,85,0.00,,,0.00,,2013-03-04 05:11:00,
2013-03-03 21:22:00,49.0,45.0,30.07,SW,235,1.0,3.0,85,0.00,,,0.00,,2013-03-04 05:22:00,
2013-03-03 21:31:00,49.0,44.0,30.07,SW,219,2.0,4.0,84,0.00,,,0.00,,2013-03-04 05:31:00,
2013-03-03 21:42:00,49.0,44.0,30.07,SW,219,2.0,4.0,84,0.00,,,0.00,,2013-03-04 05:42:00,
2013-03-03 21:52:00,49.0,44.0,30.07,SSW,193,3.0,6.0,84,0.00,,,0.00,,2013-03-04 05:52:00,
2013-03-03 22:01:00,49.0,44.0,30.06,SSW,205,2.0,8.0,84,0.00,,,0.00,,2013-03-04 06:01:00,
2013-03-03 22:11:00,49.0,44.0,30.06,SSW,205,2.0,8.0,84,0.00,,,0.00,,2013-03-04 06:11:00,
2013-03-03 22:21:00,49.0,44.0,30.07,WSW,250,3.0,7.0,84,0.00,,,0.00,,2013-03-04 06:21:00,
2013-03-03 22:31:00,49.0,44.0,30.07,WSW,248,3.0,5.0,84,0.00,,,0.00,,2013-03-04 06:31:00,
2013-03-03 22:42:00,49.0,44.0,30.07,WSW,248,3.0,5.0,84,0.00,,,0.00,,2013-03-04 06:42:00,
2013-03-03 22:51:00,49.0,44.0,30.08,SW,222,3.0,5.0,84,0.00,,,0.00,,2013-03-04 06:51:00,
2013-03-03 23:01:00,49.0,44.0,30.08,West,273,3.0,7.0,83,0.00,,,0.00,,2013-03-04 07:01:00,
2013-03-03 23:11:00,49.0,44.0,30.08,West,273,3.0,7.0,83,0.00,,,0.00,,2013-03-04 07:11:00,
2013-03-03 23:21:00,49.0,44.0,30.08,SW,217,3.0,6.0,84,0.00,,,0.00,,2013-03-04 07:21:00,
2013-03-03 23:31:00,49.0,44.0,30.08,West,269,3.0,6.0,84,0.00,,,0.00,,2013-03-04 07:31:00,
2013-03-03 23:41:00,49.0,44.0,30.08,West,269,3.0,6.0,84,0.00,,,0.00,,2013-03-04 07:41:00,
2013-03-03 23:52:00,49.0,44.0,30.08,SW,219,2.0,5.0,84,0.00,,,0.00,,2013-03-04 07:52:00,